Time;durP1;ratioP1;P1;durP2;ratioP2;P2;SDS_P1;SDS_P2;PMS_P1;PMS_P2;Temp;Humidity;BMP_temperature;BMP_pressure;BME280_temperature;BME280_humidity;BME280_pressure;Samples;Min_cycle;Max_cycle;Signal;HPM_P1;HPM_P2
2021/10/14 00:01:44;;;;;;;36.05;6.22;;;11.80;99.90;;;;;;4975890;28;20474;-71
2021/10/14 00:04:15;;;;;;;37.45;5.55;;;11.70;99.90;;;;;;4975843;28;20031;-71
2021/10/14 00:06:40;;;;;;;50.50;7.03;;;11.70;99.90;;;;;;4976028;28;20471;-71
2021/10/14 00:09:06;;;;;;;26.90;5.82;;;11.70;99.90;;;;;;4975903;28;20037;-71
2021/10/14 00:11:32;;;;;;;30.13;4.75;;;11.60;99.90;;;;;;4975609;28;20029;-71
2021/10/14 00:13:57;;;;;;;51.42;6.00;;;11.60;99.90;;;;;;4990570;28;20046;-70
2021/10/14 00:16:23;;;;;;;45.78;5.90;;;11.60;99.90;;;;;;4975843;28;20031;-71
2021/10/14 00:18:48;;;;;;;43.20;5.38;;;11.60;99.90;;;;;;4975438;28;20047;-71
2021/10/14 00:21:14;;;;;;;27.45;4.60;;;11.60;99.90;;;;;;4975392;28;20479;-71
2021/10/14 00:23:39;;;;;;;26.45;4.85;;;11.50;99.90;;;;;;4975687;28;20062;-71
2021/10/14 00:26:05;;;;;;;26.83;4.20;;;11.50;99.90;;;;;;4975360;28;20022;-71
2021/10/14 00:28:31;;;;;;;38.78;5.05;;;11.50;99.90;;;;;;4975366;28;20035;-71
2021/10/14 00:30:56;;;;;;;34.00;4.45;;;11.50;99.90;;;;;;4975260;28;20359;-71
2021/10/14 00:33:22;;;;;;;36.15;4.82;;;11.50;99.90;;;;;;4975781;28;20030;-70
2021/10/14 00:35:48;;;;;;;23.30;4.05;;;11.50;99.90;;;;;;4990099;28;20031;-71
2021/10/14 00:38:13;;;;;;;29.02;4.68;;;11.50;99.90;;;;;;4975077;28;20035;-71
2021/10/14 00:40:39;;;;;;;33.20;5.20;;;11.50;99.90;;;;;;4975051;28;20105;-71
2021/10/14 00:43:05;;;;;;;16.98;4.38;;;11.50;99.90;;;;;;4975361;28;20097;-71
2021/10/14 00:45:30;;;;;;;22.27;3.78;;;11.50;99.90;;;;;;4975055;28;20027;-71
2021/10/14 00:47:56;;;;;;;24.92;4.00;;;11.50;99.90;;;;;;4975041;28;20089;-71
2021/10/14 00:50:22;;;;;;;30.77;4.75;;;11.50;99.90;;;;;;4974911;28;20066;-71
2021/10/14 00:52:51;;;;;;;30.40;4.07;;;11.50;99.90;;;;;;4974991;28;20033;-70
2021/10/14 00:55:16;;;;;;;26.58;4.63;;;11.50;99.90;;;;;;4973658;28;20418;-70
2021/10/14 00:57:42;;;;;;;23.95;4.97;;;11.50;99.90;;;;;;4974804;28;20031;-71
2021/10/14 01:00:09;;;;;;;27.08;4.75;;;11.50;99.90;;;;;;4974619;28;20517;-71
2021/10/14 01:02:35;;;;;;;25.60;3.92;;;11.50;99.90;;;;;;4974817;28;20045;-71
2021/10/14 01:05:00;;;;;;;32.50;4.90;;;11.60;99.90;;;;;;4989700;28;20026;-71
2021/10/14 01:07:28;;;;;;;24.70;3.53;;;11.50;99.90;;;;;;4974645;28;20097;-71
2021/10/14 01:09:53;;;;;;;24.27;3.35;;;11.50;99.90;;;;;;4974612;28;20478;-71
2021/10/14 01:12:19;;;;;;;24.88;4.57;;;11.50;99.90;;;;;;4974638;28;20038;-71
2021/10/14 01:14:45;;;;;;;24.48;4.22;;;11.50;99.90;;;;;;4974916;28;20470;-71
2021/10/14 01:17:10;;;;;;;18.67;4.05;;;11.50;99.90;;;;;;4974594;28;20019;-71
2021/10/14 01:19:43;;;;;;;26.85;3.17;;;11.50;99.90;;;;;;4974458;28;20038;-70
2021/10/14 01:22:09;;;;;;;14.05;3.55;;;11.40;99.90;;;;;;4973407;28;20022;-71
2021/10/14 01:24:35;;;;;;;26.83;4.70;;;11.50;99.90;;;;;;4974512;28;20054;-71
2021/10/14 01:27:06;;;;;;;20.27;3.45;;;11.40;99.90;;;;;;4974722;28;20498;-71
2021/10/14 01:29:32;;;;;;;13.32;2.90;;;11.50;99.90;;;;;;4974655;28;20041;-70
2021/10/14 01:31:58;;;;;;;19.80;3.17;;;11.40;99.90;;;;;;4974444;28;20034;-71
2021/10/14 01:34:24;;;;;;;17.80;3.58;;;11.50;99.90;;;;;;4974425;28;20379;-70
2021/10/14 01:36:49;;;;;;;24.90;3.30;;;11.40;99.90;;;;;;4974672;28;20027;-71
2021/10/14 01:39:15;;;;;;;31.02;5.55;;;11.40;99.90;;;;;;4974145;28;20114;-71
2021/10/14 01:41:45;;;;;;;30.85;4.15;;;11.40;99.90;;;;;;4974329;28;20049;-71
2021/10/14 01:44:12;;;;;;;13.63;2.90;;;11.40;99.90;;;;;;4974567;28;20098;-71
2021/10/14 01:46:37;;;;;;;34.45;3.70;;;11.50;99.90;;;;;;4974834;28;20386;-71
2021/10/14 01:49:03;;;;;;;33.20;4.57;;;11.50;99.90;;;;;;4974195;28;20027;-70
2021/10/14 01:51:28;;;;;;;29.13;5.40;;;11.60;99.90;;;;;;4975047;28;20493;-71
2021/10/14 01:53:54;;;;;;;37.80;4.22;;;11.50;99.90;;;;;;4974253;28;20034;-71
2021/10/14 01:56:19;;;;;;;30.92;3.92;;;11.60;99.90;;;;;;4989145;28;20445;-71
2021/10/14 01:58:45;;;;;;;39.83;3.50;;;11.60;99.90;;;;;;4974633;28;20467;-71
2021/10/14 02:01:10;;;;;;;28.38;3.65;;;11.60;99.90;;;;;;4974003;28;20034;-71
2021/10/14 02:03:36;;;;;;;33.20;4.60;;;11.70;99.90;;;;;;4974141;28;20026;-71
2021/10/14 02:06:01;;;;;;;23.02;3.55;;;11.70;99.90;;;;;;4974084;28;20153;-70
2021/10/14 02:08:27;;;;;;;37.97;4.38;;;11.70;99.90;;;;;;4974077;28;20039;-71
2021/10/14 02:10:53;;;;;;;29.55;3.60;;;11.60;99.90;;;;;;4974012;28;20401;-70
2021/10/14 02:13:18;;;;;;;28.05;3.90;;;11.70;99.90;;;;;;4974312;28;20034;-70
2021/10/14 02:15:44;;;;;;;27.42;4.43;;;11.70;99.90;;;;;;4974080;28;20031;-70
2021/10/14 02:18:09;;;;;;;30.55;3.63;;;11.70;99.90;;;;;;4975690;28;20027;-70
2021/10/14 02:20:35;;;;;;;25.02;4.10;;;11.70;99.90;;;;;;4977814;28;20106;-70
2021/10/14 02:23:00;;;;;;;21.58;3.40;;;11.60;99.90;;;;;;4977662;28;20041;-70
2021/10/14 02:25:27;;;;;;;20.20;3.38;;;11.60;99.90;;;;;;4977875;28;20033;-71
2021/10/14 02:27:52;;;;;;;22.52;3.67;;;11.60;99.90;;;;;;4977616;28;20023;-71
2021/10/14 02:30:18;;;;;;;24.02;4.25;;;11.60;99.90;;;;;;4977421;28;20030;-71
2021/10/14 02:32:43;;;;;;;22.05;3.72;;;11.60;99.90;;;;;;4977767;28;20041;-71
2021/10/14 02:35:09;;;;;;;19.15;3.88;;;11.60;99.90;;;;;;4977705;28;20475;-71
2021/10/14 02:37:35;;;;;;;18.15;2.95;;;11.60;99.90;;;;;;4977351;28;20031;-70
2021/10/14 02:40:01;;;;;;;15.57;3.15;;;11.50;99.90;;;;;;4977344;28;20073;-70
2021/10/14 02:42:26;;;;;;;23.77;3.40;;;11.50;99.90;;;;;;4977324;28;20363;-70
2021/10/14 02:44:52;;;;;;;18.73;2.50;;;11.50;99.90;;;;;;4977273;28;20059;-71
2021/10/14 02:47:17;;;;;;;28.13;2.80;;;11.50;99.90;;;;;;4977201;28;20438;-70
2021/10/14 02:49:43;;;;;;;17.55;3.85;;;11.50;99.90;;;;;;4975887;28;20069;-70
2021/10/14 02:52:08;;;;;;;20.23;2.80;;;11.40;99.90;;;;;;4977177;28;20027;-70
2021/10/14 02:54:34;;;;;;;21.00;3.22;;;11.40;99.90;;;;;;4977114;28;20058;-71
2021/10/14 02:56:59;;;;;;;22.88;2.53;;;11.40;99.90;;;;;;4977026;28;20034;-71
2021/10/14 02:59:25;;;;;;;17.67;2.70;;;11.40;99.90;;;;;;4977161;28;20042;-71
2021/10/14 03:01:51;;;;;;;26.17;3.15;;;11.40;99.90;;;;;;4977021;28;20117;-71
2021/10/14 03:04:17;;;;;;;17.73;2.63;;;11.40;99.90;;;;;;4977190;28;20382;-70
2021/10/14 03:06:43;;;;;;;23.92;3.15;;;11.40;99.90;;;;;;4977191;28;20360;-70
2021/10/14 03:09:08;;;;;;;15.50;2.85;;;11.40;99.90;;;;;;4977263;28;20474;-71
2021/10/14 03:11:34;;;;;;;15.90;2.72;;;11.50;99.90;;;;;;4977325;28;20035;-71
2021/10/14 03:13:59;;;;;;;12.55;2.25;;;11.40;99.90;;;;;;4976911;28;20035;-71
2021/10/14 03:16:25;;;;;;;24.80;2.70;;;11.50;99.90;;;;;;4976689;28;20038;-70
2021/10/14 03:18:52;;;;;;;17.60;2.28;;;11.50;99.90;;;;;;4976842;28;20035;-71
2021/10/14 03:21:18;;;;;;;18.27;2.42;;;11.50;99.90;;;;;;4975411;28;20022;-71
2021/10/14 03:23:44;;;;;;;7.57;2.35;;;11.40;99.90;;;;;;4976605;28;20074;-70
2021/10/14 03:26:09;;;;;;;13.90;2.45;;;11.50;99.90;;;;;;4976548;28;20486;-70
2021/10/14 03:28:35;;;;;;;16.95;2.53;;;11.40;99.90;;;;;;4976421;28;20368;-71
2021/10/14 03:31:00;;;;;;;12.63;2.40;;;11.50;99.90;;;;;;4975890;28;20031;-70
2021/10/14 03:33:26;;;;;;;5.05;1.75;;;11.50;99.90;;;;;;4976407;28;20026;-70
2021/10/14 03:35:51;;;;;;;17.55;2.53;;;11.50;99.90;;;;;;4976347;28;20027;-71
2021/10/14 03:38:17;;;;;;;17.92;2.10;;;11.50;99.90;;;;;;4976755;28;20039;-71
2021/10/14 03:40:42;;;;;;;13.02;2.28;;;11.50;99.90;;;;;;4976194;28;20030;-71
2021/10/14 03:43:08;;;;;;;21.10;2.70;;;11.50;99.90;;;;;;4976238;28;20387;-71
2021/10/14 03:45:34;;;;;;;21.30;2.60;;;11.60;99.90;;;;;;4976178;28;20059;-71
2021/10/14 03:47:59;;;;;;;17.58;2.58;;;11.50;99.90;;;;;;4976111;28;20027;-71
2021/10/14 03:50:25;;;;;;;11.52;2.30;;;11.50;99.90;;;;;;4976016;28;20398;-71
2021/10/14 03:52:51;;;;;;;15.25;2.45;;;11.50;99.90;;;;;;4976035;28;20457;-71
2021/10/14 03:55:17;;;;;;;29.45;2.40;;;11.60;99.90;;;;;;4976026;28;20031;-71
2021/10/14 03:57:42;;;;;;;20.83;3.15;;;11.50;99.90;;;;;;4976157;28;20387;-70
2021/10/14 04:00:09;;;;;;;15.88;2.53;;;11.50;99.90;;;;;;4975976;28;20039;-71
2021/10/14 04:02:34;;;;;;;14.77;4.25;;;11.50;99.90;;;;;;4976399;28;20034;-71
2021/10/14 04:05:00;;;;;;;24.83;3.38;;;11.50;99.90;;;;;;4975820;28;20019;-70
2021/10/14 04:07:26;;;;;;;17.88;2.42;;;11.50;99.90;;;;;;4975762;28;20487;-70
2021/10/14 04:09:51;;;;;;;10.25;2.60;;;11.50;99.90;;;;;;4990632;28;20085;-71
2021/10/14 04:12:17;;;;;;;22.08;3.03;;;11.50;99.90;;;;;;4975944;28;20065;-70
2021/10/14 04:14:42;;;;;;;9.68;1.98;;;11.50;99.90;;;;;;4975612;28;20031;-71
2021/10/14 04:17:08;;;;;;;24.50;2.10;;;11.40;99.90;;;;;;4975567;28;20034;-70
2021/10/14 04:19:33;;;;;;;13.10;2.10;;;11.40;99.90;;;;;;4975414;28;20035;-71
2021/10/14 04:21:59;;;;;;;16.45;1.88;;;11.40;99.90;;;;;;4975489;28;20055;-70
2021/10/14 04:24:27;;;;;;;14.32;3.42;;;11.40;99.90;;;;;;4975442;28;20102;-70
2021/10/14 04:26:53;;;;;;;23.30;2.38;;;11.40;99.90;;;;;;4975684;28;20471;-71
2021/10/14 04:29:18;;;;;;;15.25;2.05;;;11.30;99.90;;;;;;4975874;28;20038;-71
2021/10/14 04:31:45;;;;;;;10.07;2.35;;;11.30;99.90;;;;;;4975380;28;20035;-70
2021/10/14 04:34:10;;;;;;;23.52;2.72;;;11.30;99.90;;;;;;4975302;28;20027;-71
2021/10/14 04:36:37;;;;;;;24.65;2.70;;;11.30;99.90;;;;;;4975536;28;20394;-71
2021/10/14 04:39:06;;;;;;;22.33;2.38;;;11.30;99.90;;;;;;4974957;28;20034;-71
2021/10/14 04:41:33;;;;;;;44.65;3.58;;;11.30;99.90;;;;;;4974268;28;20034;-71
2021/10/14 04:43:59;;;;;;;21.27;2.67;;;11.20;99.90;;;;;;4975113;28;20023;-71
2021/10/14 04:46:25;;;;;;;12.55;1.70;;;11.30;99.90;;;;;;4975081;28;20030;-71
2021/10/14 04:48:50;;;;;;;17.25;2.67;;;11.30;99.90;;;;;;4975327;28;20389;-70
2021/10/14 04:51:16;;;;;;;11.23;1.90;;;11.40;99.90;;;;;;4974927;28;20060;-71
2021/10/14 04:53:42;;;;;;;13.48;2.20;;;11.30;99.90;;;;;;4974942;28;20026;-71
2021/10/14 04:56:07;;;;;;;13.05;2.05;;;11.30;99.90;;;;;;4975335;28;20034;-71
2021/10/14 04:58:33;;;;;;;16.73;2.20;;;11.30;99.90;;;;;;4974805;28;20031;-71
2021/10/14 05:00:58;;;;;;;23.20;2.70;;;11.30;99.90;;;;;;4974813;28;20397;-71
2021/10/14 05:03:24;;;;;;;15.82;2.50;;;11.30;99.90;;;;;;4975368;28;20026;-71
2021/10/14 05:05:50;;;;;;;17.30;2.75;;;11.40;99.90;;;;;;4975002;28;20386;-71
2021/10/14 05:08:15;;;;;;;15.18;2.28;;;11.40;99.90;;;;;;4974728;28;20034;-71
2021/10/14 05:10:42;;;;;;;27.85;3.38;;;11.40;99.90;;;;;;4974643;28;20042;-71
2021/10/14 05:13:09;;;;;;;17.65;3.00;;;11.30;99.90;;;;;;4989578;28;20035;-71
2021/10/14 05:15:38;;;;;;;10.50;1.80;;;11.30;99.90;;;;;;4974630;28;20030;-71
2021/10/14 05:18:04;;;;;;;7.38;1.42;;;11.30;99.90;;;;;;4973310;28;20031;-71
2021/10/14 05:20:30;;;;;;;16.30;2.00;;;11.30;99.90;;;;;;4975082;28;20015;-71
2021/10/14 05:22:55;;;;;;;8.80;1.42;;;11.20;99.90;;;;;;4974602;28;20050;-71
2021/10/14 05:25:21;;;;;;;13.25;2.75;;;11.20;99.90;;;;;;4974801;28;20025;-71
2021/10/14 05:27:46;;;;;;;18.75;2.10;;;11.20;99.90;;;;;;4989446;28;20026;-71
2021/10/14 05:30:12;;;;;;;10.93;2.10;;;11.20;99.90;;;;;;4974642;28;20027;-71
2021/10/14 05:32:38;;;;;;;13.48;1.55;;;11.20;99.90;;;;;;4974400;28;20035;-71
2021/10/14 05:35:04;;;;;;;9.13;1.80;;;11.20;99.90;;;;;;4974419;28;20030;-71
2021/10/14 05:37:30;;;;;;;12.63;2.47;;;11.10;99.90;;;;;;4974348;28;20510;-71
2021/10/14 05:39:56;;;;;;;12.35;1.80;;;11.10;99.90;;;;;;4974209;28;20042;-71
2021/10/14 05:42:22;;;;;;;14.18;2.25;;;11.10;99.90;;;;;;4974899;28;20033;-71
2021/10/14 05:44:47;;;;;;;14.52;1.65;;;11.00;99.90;;;;;;4974317;28;20050;-71
2021/10/14 05:47:13;;;;;;;14.82;2.08;;;11.00;99.90;;;;;;4974270;28;20103;-71
2021/10/14 05:49:39;;;;;;;17.42;3.00;;;11.00;99.90;;;;;;4974189;28;20038;-71
2021/10/14 05:52:05;;;;;;;11.73;2.15;;;11.00;99.90;;;;;;4974337;28;20030;-71
2021/10/14 05:54:31;;;;;;;18.45;2.10;;;11.00;99.90;;;;;;4978459;28;20501;-71
2021/10/14 05:56:58;;;;;;;11.68;1.88;;;11.00;99.90;;;;;;4993148;28;20026;-71
2021/10/14 05:59:26;;;;;;;10.85;2.20;;;11.00;99.90;;;;;;4977798;28;20537;-71
2021/10/14 06:01:52;;;;;;;14.23;1.90;;;11.10;99.90;;;;;;5015962;23;20046;-71
2021/10/14 06:04:18;;;;;;;15.10;1.83;;;11.10;99.90;;;;;;4978293;28;20035;-70
2021/10/14 06:06:43;;;;;;;15.23;2.40;;;11.00;99.90;;;;;;4977964;28;20027;-70
2021/10/14 06:09:09;;;;;;;13.43;1.85;;;11.00;99.90;;;;;;4977921;28;20529;-70
2021/10/14 06:11:34;;;;;;;9.68;1.98;;;10.90;99.90;;;;;;4977809;28;20086;-70
2021/10/14 06:14:00;;;;;;;6.80;1.60;;;11.00;99.90;;;;;;4977869;28;20023;-70
2021/10/14 06:16:26;;;;;;;15.70;2.67;;;11.00;99.90;;;;;;4977784;28;20075;-70
2021/10/14 06:18:51;;;;;;;16.88;2.83;;;11.10;99.90;;;;;;4977961;28;20122;-70
2021/10/14 06:21:17;;;;;;;14.38;1.73;;;11.10;99.90;;;;;;4977888;28;20019;-70
2021/10/14 06:23:43;;;;;;;14.88;2.50;;;11.20;99.90;;;;;;4978004;28;20030;-70
2021/10/14 06:26:09;;;;;;;16.55;2.33;;;11.20;99.90;;;;;;4978116;28;20049;-70
2021/10/14 06:28:34;;;;;;;22.83;2.47;;;11.30;99.90;;;;;;4978142;28;20450;-70
2021/10/14 06:31:00;;;;;;;19.90;2.40;;;11.40;99.90;;;;;;4977484;28;20022;-70
2021/10/14 06:33:25;;;;;;;16.67;2.25;;;11.40;99.90;;;;;;4977501;28;20080;-70
2021/10/14 06:35:51;;;;;;;9.93;1.73;;;11.40;99.90;;;;;;4977540;28;20062;-70
2021/10/14 06:38:16;;;;;;;8.18;1.88;;;11.40;99.90;;;;;;4978082;28;20027;-70
2021/10/14 06:40:42;;;;;;;9.95;1.70;;;11.50;99.90;;;;;;4977353;28;20027;-70
2021/10/14 06:43:08;;;;;;;8.38;1.70;;;11.50;99.90;;;;;;4977317;28;20470;-70
2021/10/14 06:45:34;;;;;;;10.63;2.20;;;11.50;99.90;;;;;;4977551;28;20030;-70
2021/10/14 06:48:00;;;;;;;9.52;1.73;;;11.50;99.90;;;;;;4977525;28;20074;-70
2021/10/14 06:50:25;;;;;;;20.05;2.35;;;11.60;99.90;;;;;;4977144;28;20026;-70
2021/10/14 06:52:51;;;;;;;15.55;1.50;;;11.60;99.90;;;;;;4977124;28;20027;-70
2021/10/14 06:55:16;;;;;;;11.40;1.75;;;11.70;99.90;;;;;;4977101;28;20031;-70
2021/10/14 06:57:42;;;;;;;8.15;2.10;;;11.70;99.90;;;;;;4976981;28;20545;-70
2021/10/14 07:00:08;;;;;;;12.75;2.28;;;11.80;99.90;;;;;;4976812;28;20030;-70
2021/10/14 07:02:34;;;;;;;13.15;2.45;;;11.90;99.90;;;;;;4977170;28;20033;-70
2021/10/14 07:05:00;;;;;;;4.90;1.38;;;12.00;99.90;;;;;;4975885;28;20101;-70
2021/10/14 07:07:25;;;;;;;10.20;1.75;;;12.10;99.90;;;;;;4976914;28;20058;-70
2021/10/14 07:09:51;;;;;;;8.50;1.63;;;12.10;99.90;;;;;;4977036;28;20074;-70
2021/10/14 07:12:16;;;;;;;18.75;2.03;;;12.20;99.90;;;;;;4976711;28;20042;-70
2021/10/14 07:14:43;;;;;;;9.40;2.53;;;12.20;99.90;;;;;;4976743;28;20050;-70
2021/10/14 07:17:09;;;;;;;3.90;1.27;;;12.20;99.90;;;;;;4976687;28;20471;-70
2021/10/14 07:19:35;;;;;;;9.52;1.70;;;12.30;99.90;;;;;;4991512;28;20022;-70
2021/10/14 07:22:02;;;;;;;11.50;1.60;;;12.30;99.90;;;;;;4977130;28;20019;-70
2021/10/14 07:24:30;;;;;;;11.20;1.60;;;12.40;99.90;;;;;;4976561;28;20031;-70
2021/10/14 07:26:56;;;;;;;4.55;1.23;;;12.50;99.90;;;;;;4976750;28;20030;-70
2021/10/14 07:29:22;;;;;;;10.80;1.85;;;12.60;99.90;;;;;;4976471;28;20038;-70
2021/10/14 07:31:48;;;;;;;5.40;1.52;;;12.60;99.90;;;;;;4976541;28;20078;-70
2021/10/14 07:34:14;;;;;;;7.07;1.35;;;12.60;99.90;;;;;;4976385;28;20440;-70
2021/10/14 07:36:39;;;;;;;7.05;2.08;;;12.70;99.90;;;;;;4976363;28;20069;-70
2021/10/14 07:39:05;;;;;;;6.50;0.98;;;12.90;99.90;;;;;;4976235;28;20030;-70
2021/10/14 07:41:30;;;;;;;4.60;0.93;;;13.00;99.90;;;;;;4976210;28;20073;-69
2021/10/14 07:43:56;;;;;;;8.73;1.13;;;13.00;99.90;;;;;;4976235;28;20038;-70
2021/10/14 07:46:21;;;;;;;5.78;1.20;;;12.90;99.90;;;;;;4976209;28;20026;-70
2021/10/14 07:48:47;;;;;;;9.25;1.52;;;12.80;99.90;;;;;;4976179;28;20031;-70
2021/10/14 07:51:13;;;;;;;3.63;0.90;;;12.80;99.90;;;;;;4976238;28;20031;-70
2021/10/14 07:53:39;;;;;;;4.75;1.33;;;12.80;99.90;;;;;;4976058;28;20034;-70
2021/10/14 07:56:05;;;;;;;4.55;0.80;;;12.70;99.90;;;;;;4976252;28;20027;-70
2021/10/14 07:58:31;;;;;;;4.00;1.08;;;12.60;99.90;;;;;;4976403;28;20110;-70
2021/10/14 08:00:57;;;;;;;3.22;1.17;;;12.50;99.90;;;;;;4975931;28;20047;-69
2021/10/14 08:03:23;;;;;;;2.45;1.00;;;12.50;99.90;;;;;;4974625;28;20027;-69
2021/10/14 08:05:48;;;;;;;2.38;0.77;;;12.50;99.90;;;;;;4975819;28;20104;-69
2021/10/14 08:08:14;;;;;;;4.18;1.08;;;12.40;99.90;;;;;;4975108;28;20058;-69
2021/10/14 08:10:40;;;;;;;4.47;0.70;;;12.40;99.90;;;;;;4975675;28;20483;-69
2021/10/14 08:13:05;;;;;;;2.05;0.77;;;12.30;99.90;;;;;;4975979;28;20027;-69
2021/10/14 08:15:31;;;;;;;3.53;0.98;;;12.40;99.90;;;;;;4975488;28;20062;-69
2021/10/14 08:17:57;;;;;;;1.38;0.70;;;12.30;99.90;;;;;;4975570;28;20039;-69
2021/10/14 08:20:23;;;;;;;1.83;0.60;;;12.40;99.90;;;;;;4975780;28;20023;-69
2021/10/14 08:22:49;;;;;;;4.82;0.80;;;12.40;99.90;;;;;;4975520;28;20407;-69
2021/10/14 08:25:16;;;;;;;0.63;0.63;;;12.50;99.90;;;;;;4975713;28;20054;-69
2021/10/14 08:27:43;;;;;;;2.47;0.80;;;12.60;99.90;;;;;;4975413;28;20578;-69
2021/10/14 08:30:11;;;;;;;2.00;0.90;;;12.70;99.90;;;;;;4975573;28;20054;-69
2021/10/14 08:32:37;;;;;;;1.90;1.05;;;12.80;99.90;;;;;;4975355;28;20398;-69
2021/10/14 08:35:03;;;;;;;1.70;0.80;;;12.80;99.90;;;;;;4975607;28;20054;-69
2021/10/14 08:37:29;;;;;;;4.30;0.98;;;12.80;99.90;;;;;;4975334;28;20038;-69
2021/10/14 08:39:55;;;;;;;1.05;0.60;;;12.80;99.90;;;;;;4975053;28;20033;-70
2021/10/14 08:42:21;;;;;;;6.00;1.00;;;12.80;99.90;;;;;;4975680;28;20026;-69
2021/10/14 08:44:48;;;;;;;4.88;0.90;;;12.80;99.90;;;;;;4975134;28;20062;-69
2021/10/14 08:47:15;;;;;;;3.53;0.82;;;12.90;99.90;;;;;;4975189;28;20046;-70
2021/10/14 08:49:46;;;;;;;5.40;1.40;;;13.10;99.90;;;;;;4975578;28;20031;-69
2021/10/14 08:52:13;;;;;;;1.70;0.77;;;13.30;99.90;;;;;;4974943;28;20037;-70
2021/10/14 08:54:40;;;;;;;2.97;0.77;;;13.40;99.90;;;;;;4974956;28;20027;-70
2021/10/14 08:57:06;;;;;;;7.35;0.95;;;13.30;99.90;;;;;;4974972;28;20054;-70
2021/10/14 08:59:32;;;;;;;4.38;1.08;;;13.30;99.90;;;;;;4975065;28;20035;-70
2021/10/14 09:02:15;;;;;;;5.90;1.13;;;13.30;99.90;;;;;;4974689;28;20517;-69
2021/10/14 09:04:55;;;;;;;2.83;1.02;;;13.50;99.90;;;;;;4974906;28;20022;-70
2021/10/14 09:07:22;;;;;;;4.63;1.40;;;13.50;99.90;;;;;;4989723;28;20031;-70
2021/10/14 09:09:49;;;;;;;4.50;0.98;;;13.50;99.90;;;;;;4975018;28;20031;-70
2021/10/14 09:12:17;;;;;;;4.85;1.23;;;13.40;99.90;;;;;;4974590;28;20077;-69
2021/10/14 09:14:54;;;;;;;6.93;1.08;;;13.30;99.90;;;;;;4975100;28;20031;-69
2021/10/14 09:17:48;;;;;;;5.38;1.40;;;13.20;99.90;;;;;;4974907;28;20479;-69
2021/10/14 09:20:40;;;;;;;6.15;1.52;;;13.00;99.90;;;;;;4989431;28;20098;-69
2021/10/14 09:23:13;;;;;;;3.30;1.20;;;13.00;99.90;;;;;;4989566;28;20018;-69
2021/10/14 09:25:47;;;;;;;6.80;1.38;;;13.20;99.90;;;;;;4974556;28;20023;-69
2021/10/14 09:28:28;;;;;;;;;;;13.30;99.90;;;;;;4974598;28;20503;-69
2021/10/14 09:31:06;;;;;;;12.02;1.30;;;13.40;99.90;;;;;;4974404;28;19906;-69
2021/10/14 09:33:45;;;;;;;3.58;1.20;;;13.40;99.90;;;;;;4974786;28;20023;-69
2021/10/14 09:36:20;;;;;;;11.13;1.55;;;13.20;99.90;;;;;;4989548;28;20027;-69
2021/10/14 09:38:54;;;;;;;5.00;1.65;;;13.10;99.90;;;;;;4973116;28;20027;-69
2021/10/14 09:41:22;;;;;;;6.38;2.13;;;13.00;99.90;;;;;;4974295;28;20019;-69
2021/10/14 09:43:51;;;;;;;9.15;1.50;;;13.00;99.90;;;;;;4974302;28;20023;-70
2021/10/14 09:46:36;;;;;;;10.25;1.70;;;12.90;99.90;;;;;;4974544;28;20498;-69
2021/10/14 09:49:08;;;;;;;9.35;1.90;;;13.00;99.90;;;;;;4989215;28;20030;-70
2021/10/14 09:51:34;;;;;;;6.65;1.70;;;13.10;99.90;;;;;;4974811;28;20485;-70
2021/10/14 09:54:00;;;;;;;3.60;1.38;;;13.10;99.90;;;;;;4974766;28;20026;-69
2021/10/14 09:56:28;;;;;;;11.00;2.03;;;13.30;99.90;;;;;;4974484;28;20023;-69
2021/10/14 09:58:53;;;;;;;10.65;1.90;;;13.30;99.90;;;;;;4974126;28;20030;-69
2021/10/14 10:01:20;;;;;;;5.82;1.38;;;13.30;99.90;;;;;;4974111;28;20031;-70
2021/10/14 10:03:47;;;;;;;13.50;1.77;;;13.30;99.90;;;;;;4974179;28;20023;-70
2021/10/14 10:06:14;;;;;;;7.22;1.52;;;13.50;99.90;;;;;;4974202;28;20097;-70
2021/10/14 10:08:43;;;;;;;8.15;1.52;;;13.60;99.90;;;;;;4974143;28;20038;-69
2021/10/14 10:11:13;;;;;;;11.50;1.65;;;13.80;99.90;;;;;;4974014;28;20059;-69
2021/10/14 10:13:45;;;;;;;3.70;1.73;;;13.80;99.90;;;;;;4974402;28;20422;-69
2021/10/14 10:16:19;;;;;;;13.15;2.22;;;14.00;99.90;;;;;;4974387;28;20027;-69
2021/10/14 10:18:48;;;;;;;9.55;1.88;;;14.10;99.90;;;;;;4974311;28;20026;-70
2021/10/14 10:21:31;;;;;;;7.25;2.00;;;14.20;99.90;;;;;;4973959;28;20023;-70
2021/10/14 10:24:22;;;;;;;9.48;2.03;;;14.30;99.90;;;;;;4973988;28;20023;-70
2021/10/14 10:26:49;;;;;;;16.42;1.77;;;14.30;99.90;;;;;;4973981;28;20570;-70
2021/10/14 10:29:14;;;;;;;8.65;1.70;;;14.30;99.90;;;;;;4974223;28;20505;-70
2021/10/14 10:31:49;;;;;;;10.85;2.17;;;14.30;99.90;;;;;;4973917;28;20019;-70
2021/10/14 10:34:43;;;;;;;21.90;2.70;;;14.30;99.90;;;;;;4973910;28;20023;-70
2021/10/14 10:37:22;;;;;;;11.02;2.03;;;14.40;99.90;;;;;;4973957;28;20038;-70
2021/10/14 10:39:55;;;;;;;16.98;2.58;;;14.40;99.90;;;;;;4976935;28;20023;-70
2021/10/14 10:42:38;;;;;;;8.55;1.80;;;14.40;99.90;;;;;;4977581;28;20019;-70
2021/10/14 10:45:06;;;;;;;20.80;2.33;;;14.30;99.90;;;;;;4977369;28;20527;-70
2021/10/14 10:47:42;;;;;;;9.32;1.98;;;14.30;99.90;;;;;;4977592;28;20031;-70
2021/10/14 10:50:18;;;;;;;7.53;2.40;;;14.10;99.90;;;;;;4975907;28;20035;-69
2021/10/14 10:52:46;;;;;;;10.98;2.28;;;13.80;99.90;;;;;;4977270;28;20026;-68
2021/10/14 10:55:42;;;;;;;13.40;2.65;;;13.60;99.90;;;;;;4977659;28;20379;-68
2021/10/14 10:58:10;;;;;;;11.30;2.75;;;13.10;99.90;;;;;;4972482;28;20109;-69
2021/10/14 11:00:38;;;;;;;11.10;2.47;;;12.90;99.90;;;;;;4976969;28;20479;-69
2021/10/14 11:03:20;;;;;;;11.07;2.83;;;12.70;99.90;;;;;;4976988;28;20026;-68
2021/10/14 11:05:58;;;;;;;9.75;2.22;;;12.70;99.90;;;;;;4976999;28;20019;-69
2021/10/14 11:08:31;;;;;;;9.05;1.92;;;12.70;99.90;;;;;;4977197;28;20034;-69
2021/10/14 11:11:18;;;;;;;8.30;2.00;;;12.70;99.90;;;;;;4977044;28;20562;-69
2021/10/14 11:13:52;;;;;;;6.72;2.40;;;12.80;99.90;;;;;;4977110;28;20357;-68
2021/10/14 11:16:18;;;;;;;;;;;12.80;99.90;;;;;;4977201;28;20027;-69
2021/10/14 11:18:49;;;;;;;14.13;2.47;;;12.90;99.90;;;;;;4976956;28;19964;-68
2021/10/14 11:21:18;;;;;;;5.57;2.45;;;13.00;99.90;;;;;;4977151;28;20089;-69
2021/10/14 11:23:44;;;;;;;6.30;2.05;;;13.00;99.90;;;;;;4976762;28;20027;-69
2021/10/14 11:26:18;;;;;;;7.95;1.67;;;13.00;99.90;;;;;;4976584;28;20430;-69
2021/10/14 11:28:52;;;;;;;8.88;1.83;;;13.10;99.90;;;;;;4977046;28;20026;-68
2021/10/14 11:31:36;;;;;;;7.30;2.17;;;13.10;99.90;;;;;;4976452;28;20565;-69
2021/10/14 11:34:15;;;;;;;12.90;2.90;;;13.20;99.90;;;;;;4976788;28;20034;-69
2021/10/14 11:36:55;;;;;;;7.80;2.05;;;13.30;99.90;;;;;;4991368;28;20553;-69
2021/10/14 11:39:23;;;;;;;7.60;1.60;;;13.40;99.90;;;;;;4976741;28;20065;-69
2021/10/14 11:41:59;;;;;;;23.10;2.15;;;13.40;99.90;;;;;;4976233;28;20027;-69
2021/10/14 11:44:32;;;;;;;13.45;2.17;;;13.50;99.90;;;;;;4976509;28;20027;-69
2021/10/14 11:46:58;;;;;;;10.63;2.72;;;13.60;99.90;;;;;;4976526;28;20119;-70
2021/10/14 11:49:24;;;;;;;16.15;2.30;;;13.70;99.90;;;;;;4976210;28;20395;-69
2021/10/14 11:51:50;;;;;;;10.45;1.65;;;13.80;99.90;;;;;;4975510;28;20109;-69
2021/10/14 11:54:17;;;;;;;12.77;1.70;;;13.80;99.90;;;;;;4974767;28;20449;-69
2021/10/14 11:56:45;;;;;;;13.73;2.92;;;13.80;99.90;;;;;;4976087;28;20102;-69
2021/10/14 11:59:12;;;;;;;20.08;2.30;;;13.90;99.90;;;;;;4975898;28;20026;-69
2021/10/14 12:02:12;;;;;;;25.50;2.95;;;13.90;99.90;;;;;;5031353;23;20055;-71
2021/10/14 12:04:44;;;;;;;25.17;3.83;;;13.80;99.90;;;;;;4976168;28;20018;-71
2021/10/14 12:07:15;;;;;;;13.35;2.38;;;13.80;99.90;;;;;;4976675;28;20379;-71
2021/10/14 12:09:41;;;;;;;11.15;2.55;;;13.70;99.90;;;;;;4976089;28;20055;-71
2021/10/14 12:12:07;;;;;;;17.45;2.70;;;13.70;99.90;;;;;;4975717;28;20099;-71
2021/10/14 12:14:38;;;;;;;13.20;2.88;;;13.80;99.90;;;;;;4975709;28;20085;-71
2021/10/14 12:17:13;;;;;;;11.88;2.47;;;13.80;99.90;;;;;;4975687;28;20027;-71
2021/10/14 12:19:50;;;;;;;13.65;2.92;;;13.90;99.90;;;;;;4975802;28;20490;-71
2021/10/14 12:22:21;;;;;;;16.13;2.47;;;13.90;99.90;;;;;;4975450;28;20050;-71
2021/10/14 12:25:03;;;;;;;8.65;2.22;;;13.90;99.90;;;;;;4975579;28;20023;-71
2021/10/14 12:27:48;;;;;;;12.00;2.22;;;13.80;99.90;;;;;;4975435;28;20031;-71
2021/10/14 12:30:37;;;;;;;13.95;2.50;;;13.70;99.90;;;;;;4975928;28;20033;-71
2021/10/14 12:33:12;;;;;;;15.45;2.70;;;13.70;99.90;;;;;;4975386;28;20023;-71
2021/10/14 12:36:00;;;;;;;16.27;3.00;;;13.70;99.90;;;;;;4975345;28;20023;-71
2021/10/14 12:38:40;;;;;;;12.88;2.97;;;13.70;99.90;;;;;;4990148;28;20022;-71
2021/10/14 12:41:08;;;;;;;18.83;3.42;;;13.70;99.90;;;;;;4975319;28;20018;-71
2021/10/14 12:44:02;;;;;;;18.17;3.25;;;13.80;99.90;;;;;;4975177;28;20027;-71
2021/10/14 12:46:41;;;;;;;14.50;2.83;;;13.80;99.90;;;;;;4973911;28;20033;-71